Time;durP1;ratioP1;P1;durP2;ratioP2;P2;SDS_P1;SDS_P2;PMS_P1;PMS_P2;Temp;Humidity;BMP_temperature;BMP_pressure;BME280_temperature;BME280_humidity;BME280_pressure;Samples;Min_cycle;Max_cycle;Signal;HPM_P1;HPM_P2
2022/09/15 00:00:48;;;;;;;;;3.50;3.50;;;;;-144.76;100.00;60493.00;5092081;27;45238;-82
2022/09/15 00:03:14;;;;;;;;;3.75;3.75;;;;;-144.76;100.00;60493.00;5091473;27;45091;-82
2022/09/15 00:05:39;;;;;;;;;3.50;3.50;;;;;-144.76;100.00;60493.00;5091553;27;44637;-81
2022/09/15 00:08:05;;;;;;;;;3.00;3.00;;;;;-144.76;100.00;60493.00;5091738;27;45197;-81
2022/09/15 00:10:30;;;;;;;;;3.50;3.00;;;;;-144.76;100.00;60493.00;5091237;27;45159;-81
2022/09/15 00:12:55;;;;;;;;;3.75;3.00;;;;;-144.76;100.00;60493.00;5090649;27;58248;-82
2022/09/15 00:15:22;;;;;;;;;4.00;4.00;;;;;-144.76;100.00;60493.00;5091547;27;44925;-82
2022/09/15 00:17:50;;;;;;;;;3.75;3.75;;;;;-144.76;100.00;60493.00;5091431;27;44946;-82
2022/09/15 00:20:17;;;;;;;;;3.00;3.00;;;;;-144.76;100.00;60493.00;5094913;27;45044;-82
2022/09/15 00:22:42;;;;;;;;;4.00;4.00;;;;;-144.76;100.00;60493.00;5094873;27;45134;-82
2022/09/15 00:25:09;;;;;;;;;3.50;3.50;;;;;-144.76;100.00;60493.00;5094477;27;57841;-81
2022/09/15 00:27:34;;;;;;;;;3.25;2.50;;;;;-144.76;100.00;60493.00;5092849;27;45157;-82
2022/09/15 00:30:00;;;;;;;;;4.00;4.00;;;;;-144.76;100.00;60493.00;5094472;27;45265;-82
2022/09/15 00:32:25;;;;;;;;;3.25;3.00;;;;;-144.76;100.00;60493.00;5094833;28;45123;-81
2022/09/15 00:34:52;;;;;;;;;3.00;3.00;;;;;-144.76;100.00;60493.00;5094707;27;44968;-81
2022/09/15 00:37:18;;;;;;;;;3.00;3.00;;;;;-144.76;100.00;60493.00;5095071;27;45158;-83
2022/09/15 00:39:43;;;;;;;;;2.50;2.25;;;;;-144.76;100.00;60493.00;5094981;27;45167;-82
2022/09/15 00:42:20;;;;;;;;;2.50;2.00;;;;;-144.76;100.00;60493.00;5094260;27;45164;-82
2022/09/15 00:44:59;;;;;;;;;1.50;1.50;;;;;-144.76;100.00;60493.00;5094762;28;45118;-82
2022/09/15 00:47:30;;;;;;;;;2.25;2.00;;;;;-144.76;100.00;60493.00;5094786;27;45165;-82
2022/09/15 00:50:05;;;;;;;;;1.25;1.00;;;;;-144.76;100.00;60493.00;5094650;27;45004;-82
2022/09/15 00:52:51;;;;;;;;;1.00;1.00;;;;;-144.76;100.00;60493.00;5094347;27;46770;-82
2022/09/15 00:55:19;;;;;;;;;1.25;1.00;;;;;-144.76;100.00;60493.00;5094610;27;44991;-82
2022/09/15 00:58:00;;;;;;;;;1.00;1.00;;;;;-144.76;100.00;60493.00;5094094;28;45120;-82
2022/09/15 01:00:27;;;;;;;;;1.00;1.00;;;;;-144.76;100.00;60493.00;5093501;28;45108;-83
2022/09/15 01:02:53;;;;;;;;;2.75;1.25;;;;;-144.76;100.00;60493.00;5094353;28;45798;-83
2022/09/15 01:05:22;;;;;;;;;1.00;1.00;;;;;-144.76;100.00;60493.00;5094589;27;44980;-81
2022/09/15 01:08:05;;;;;;;;;1.00;1.00;;;;;-144.76;100.00;60493.00;5094546;27;45199;-82
2022/09/15 01:10:36;;;;;;;;;1.50;1.00;;;;;-144.76;100.00;60493.00;5093960;27;44889;-82
2022/09/15 01:13:05;;;;;;;;;1.00;0.50;;;;;-144.76;100.00;60493.00;5093960;27;45756;-82
2022/09/15 01:16:05;;;;;;;;;0.00;0.00;;;;;-144.76;100.00;60493.00;5094559;27;45007;-82
2022/09/15 01:18:44;;;;;;;;;1.00;1.00;;;;;-144.76;100.00;60493.00;5093813;27;45174;-82
2022/09/15 01:21:46;;;;;;;;;2.00;1.00;;;;;-144.76;100.00;60493.00;5110057;27;45161;-82
2022/09/15 01:24:44;;;;;;;;;0.00;0.00;;;;;-144.76;100.00;60493.00;5106163;27;47640;-82
2022/09/15 01:27:20;;;;;;;;;1.00;1.00;;;;;-144.76;100.00;60493.00;5092701;27;45160;-82
2022/09/15 01:30:24;;;;;;;;;0.00;0.00;;;;;-144.76;100.00;60493.00;5094260;27;44984;-82
2022/09/15 01:33:04;;;;;;;;;2.00;1.50;;;;;-144.76;100.00;60493.00;5091673;28;45080;-82
2022/09/15 01:35:54;;;;;;;;;1.50;1.50;;;;;-144.76;100.00;60493.00;5093694;27;45799;-82
2022/09/15 01:38:31;;;;;;;;;0.00;0.00;;;;;-144.76;100.00;60493.00;5094174;27;45023;-82
2022/09/15 01:41:16;;;;;;;;;1.00;1.00;;;;;-144.76;100.00;60493.00;5093368;27;44908;-82
2022/09/15 01:43:52;;;;;;;;;1.00;1.00;;;;;-144.76;100.00;60493.00;5092469;27;45243;-82
2022/09/15 01:46:20;;;;;;;;;2.00;2.00;;;;;-144.76;100.00;60493.00;5093589;27;45835;-82
2022/09/15 01:48:48;;;;;;;;;3.25;3.25;;;;;-144.76;100.00;60493.00;5094088;28;45212;-82
2022/09/15 01:51:15;;;;;;;;;2.50;2.00;;;;;-144.76;100.00;60493.00;5094245;27;45036;-82
2022/09/15 01:53:40;;;;;;;;;3.00;3.00;;;;;-144.76;100.00;60493.00;5093879;27;45278;-82
2022/09/15 01:56:09;;;;;;;;;3.50;2.25;;;;;-144.76;100.00;60493.00;5093081;28;52073;-81
2022/09/15 01:58:37;;;;;;;;;2.75;2.75;;;;;-144.76;100.00;60493.00;5108908;27;44985;-82
2022/09/15 02:01:18;;;;;;;;;3.00;2.00;;;;;-144.76;100.00;60493.00;5093666;27;45137;-82
2022/09/15 02:03:53;;;;;;;;;3.00;3.00;;;;;-144.76;100.00;60493.00;5093974;28;44943;-82
2022/09/15 02:06:43;;;;;;;;;3.25;3.25;;;;;-144.76;100.00;60493.00;5093287;27;45490;-82
2022/09/15 02:09:23;;;;;;;;;2.50;2.50;;;;;-144.76;100.00;60493.00;5092209;28;45564;-82
2022/09/15 02:11:57;;;;;;;;;1.50;1.50;;;;;-144.76;100.00;60493.00;5091033;28;45094;-82
2022/09/15 02:14:47;;;;;;;;;4.00;3.00;;;;;-144.76;100.00;60493.00;5093363;27;45213;-82
2022/09/15 02:17:18;;;;;;;;;2.25;2.25;;;;;-144.76;100.00;60493.00;5092875;28;45964;-83
2022/09/15 02:19:53;;;;;;;;;2.00;2.00;;;;;-144.76;100.00;60493.00;5093267;27;45059;-81
2022/09/15 02:22:26;;;;;;;;;3.00;2.00;;;;;-144.76;100.00;60493.00;5092612;28;44832;-81
2022/09/15 02:25:09;;;;;;;;;1.75;1.50;;;;;-144.76;100.00;60493.00;5093234;28;44903;-81
2022/09/15 02:30:14;;;;;;;;;3.00;2.50;;;;;-144.76;100.00;60493.00;5510750;22;45763;-83
2022/09/15 02:32:58;;;;;;;;;3.50;2.25;;;;;-144.76;100.00;60493.00;5052409;28;44932;-82
2022/09/15 02:35:25;;;;;;;;;3.75;2.75;;;;;-144.76;100.00;60493.00;5052691;28;45087;-82
2022/09/15 02:37:52;;;;;;;;;3.75;3.75;;;;;-144.76;100.00;60493.00;5052120;28;45952;-81
2022/09/15 02:40:18;;;;;;;;;4.25;4.25;;;;;-144.76;100.00;60493.00;5052250;28;45126;-82
2022/09/15 02:42:55;;;;;;;;;4.00;2.75;;;;;-144.76;100.00;60493.00;5048677;28;45110;-83
2022/09/15 02:45:21;;;;;;;;;5.00;5.00;;;;;-144.76;100.00;60493.00;5051940;28;45047;-82
2022/09/15 02:47:47;;;;;;;;;5.00;5.00;;;;;-144.76;100.00;60493.00;5051926;28;45388;-83
2022/09/15 02:50:13;;;;;;;;;6.50;6.50;;;;;-144.76;100.00;60493.00;5052156;28;45102;-83
2022/09/15 02:52:38;;;;;;;;;8.25;8.00;;;;;-144.76;100.00;60493.00;5052052;28;45197;-82
2022/09/15 02:55:04;;;;;;;;;9.00;7.00;;;;;-144.76;100.00;60493.00;5051889;28;44955;-83
2022/09/15 02:57:29;;;;;;;;;10.75;9.25;;;;;-144.76;100.00;60493.00;5051287;28;45223;-83
2022/09/15 03:00:13;;;;;;;;;12.50;11.75;;;;;-144.76;100.00;60493.00;5051366;28;60420;-83
2022/09/15 03:02:48;;;;;;;;;10.75;10.00;;;;;-144.76;100.00;60493.00;5051702;28;45071;-82
2022/09/15 03:05:16;;;;;;;;;10.75;10.25;;;;;-144.76;100.00;60493.00;5051813;28;45071;-83
2022/09/15 03:07:42;;;;;;;;;11.25;10.25;;;;;-144.76;100.00;60493.00;5051559;28;46092;-83
2022/09/15 03:10:10;;;;;;;;;11.50;10.50;;;;;-144.76;100.00;60493.00;5051590;28;45186;-82
2022/09/15 03:12:48;;;;;;;;;10.00;9.00;;;;;-144.76;100.00;60493.00;5050651;28;45065;-82
2022/09/15 03:15:16;;;;;;;;;14.50;13.50;;;;;-144.76;100.00;60493.00;5051910;28;44926;-83
2022/09/15 03:17:43;;;;;;;;;13.50;12.25;;;;;-144.76;100.00;60493.00;5051629;28;45631;-82
2022/09/15 03:20:10;;;;;;;;;13.50;13.25;;;;;-144.76;100.00;60493.00;5051376;28;45540;-82
2022/09/15 03:22:37;;;;;;;;;14.50;14.50;;;;;-144.76;100.00;60493.00;5051591;28;45009;-83
2022/09/15 03:25:06;;;;;;;;;13.00;12.50;;;;;-144.76;100.00;60493.00;5051514;28;45013;-83
2022/09/15 03:27:33;;;;;;;;;14.75;12.50;;;;;-144.76;100.00;60493.00;5050507;28;45990;-83
2022/09/15 03:29:58;;;;;;;;;11.50;10.25;;;;;-144.76;100.00;60493.00;5051406;28;45520;-83
2022/09/15 03:32:24;;;;;;;;;12.75;11.50;;;;;-144.76;100.00;60493.00;5051216;28;48220;-83
2022/09/15 03:34:49;;;;;;;;;10.75;10.25;;;;;-144.76;100.00;60493.00;5050995;28;45117;-83
2022/09/15 03:37:15;;;;;;;;;11.00;10.00;;;;;-144.76;100.00;60493.00;5050399;28;65444;-83
2022/09/15 03:39:40;;;;;;;;;10.25;9.00;;;;;-144.76;100.00;60493.00;5051577;28;45122;-82
2022/09/15 03:42:06;;;;;;;;;8.75;8.00;;;;;-144.76;100.00;60493.00;5051252;28;45043;-82
2022/09/15 03:44:31;;;;;;;;;7.75;7.00;;;;;-144.76;100.00;60493.00;5050869;28;45063;-82
2022/09/15 03:46:57;;;;;;;;;7.00;6.75;;;;;-144.76;100.00;60493.00;5050598;28;57283;-83
2022/09/15 03:49:23;;;;;;;;;7.00;6.25;;;;;-144.76;100.00;60493.00;5050768;28;45016;-83
2022/09/15 03:51:49;;;;;;;;;7.75;7.75;;;;;-144.76;100.00;60493.00;5051450;28;45134;-83
2022/09/15 03:54:15;;;;;;;;;6.75;6.75;;;;;-144.76;100.00;60493.00;5050914;28;45018;-83
2022/09/15 03:56:40;;;;;;;;;6.25;6.25;;;;;-144.76;100.00;60493.00;5051096;28;45541;-83
2022/09/15 03:59:06;;;;;;;;;9.00;8.50;;;;;-144.76;100.00;60493.00;5051382;28;45200;-83
2022/09/15 04:01:32;;;;;;;;;6.75;6.50;;;;;-144.76;100.00;60493.00;5051025;28;45045;-82
2022/09/15 04:03:57;;;;;;;;;7.50;6.25;;;;;-144.76;100.00;60493.00;5051289;28;44913;-82
2022/09/15 04:06:24;;;;;;;;;6.00;6.00;;;;;-144.76;100.00;60493.00;5049899;28;65581;-83
2022/09/15 04:08:51;;;;;;;;;5.00;4.00;;;;;-144.76;100.00;60493.00;5050891;28;45452;-82
2022/09/15 04:11:19;;;;;;;;;6.00;5.75;;;;;-144.76;100.00;60493.00;5050928;28;45430;-83
2022/09/15 04:13:45;;;;;;;;;8.00;7.00;;;;;-144.76;100.00;60493.00;5050590;28;45151;-82
2022/09/15 04:16:17;;;;;;;;;8.25;7.25;;;;;-144.76;100.00;60493.00;5050771;28;45994;-83
2022/09/15 04:18:43;;;;;;;;;6.00;5.00;;;;;-144.76;100.00;60493.00;5050571;28;45125;-84
2022/09/15 04:21:12;;;;;;;;;7.50;7.00;;;;;-144.76;100.00;60493.00;5050779;28;45156;-83
2022/09/15 04:23:38;;;;;;;;;7.25;7.25;;;;;-144.76;100.00;60493.00;5050663;28;45186;-83
2022/09/15 04:26:07;;;;;;;;;7.75;7.00;;;;;-144.76;100.00;60493.00;5050514;28;45080;-83
2022/09/15 04:28:35;;;;;;;;;8.25;8.00;;;;;-144.76;100.00;60493.00;5049774;28;45632;-83
2022/09/15 04:31:03;;;;;;;;;7.00;6.75;;;;;-144.76;100.00;60493.00;5050434;28;45028;-83
2022/09/15 04:33:29;;;;;;;;;9.25;9.25;;;;;-144.76;100.00;60493.00;5050488;28;45187;-83
2022/09/15 04:36:02;;;;;;;;;8.33;7.67;;;;;-144.76;100.00;60493.00;5049855;28;66787;-83
2022/09/15 04:38:28;;;;;;;;;7.50;7.25;;;;;-144.76;100.00;60493.00;5048991;28;45415;-84
2022/09/15 04:40:54;;;;;;;;;8.00;7.25;;;;;-144.76;100.00;60493.00;5050849;28;45003;-83
2022/09/15 04:43:20;;;;;;;;;9.50;8.75;;;;;-144.76;100.00;60493.00;5049994;28;45011;-83
2022/09/15 04:45:45;;;;;;;;;8.75;8.50;;;;;-144.76;100.00;60493.00;5050154;28;45674;-83
2022/09/15 04:48:10;;;;;;;;;7.00;7.00;;;;;-144.76;100.00;60493.00;5050309;28;45068;-83
2022/09/15 04:50:36;;;;;;;;;9.00;9.00;;;;;-144.76;100.00;60493.00;5050713;28;44991;-83
2022/09/15 04:53:01;;;;;;;;;8.00;7.75;;;;;-144.76;100.00;60493.00;5050438;28;45193;-81
2022/09/15 04:55:27;;;;;;;;;10.00;10.00;;;;;-144.76;100.00;60493.00;5049986;28;45492;-81
2022/09/15 04:57:52;;;;;;;;;10.25;9.50;;;;;-144.76;100.00;60493.00;5049541;28;45183;-81
2022/09/15 05:00:18;;;;;;;;;9.25;8.50;;;;;-144.76;100.00;60493.00;5050254;28;45186;-83
2022/09/15 05:02:44;;;;;;;;;9.00;9.00;;;;;-144.76;100.00;60493.00;5050092;28;44992;-81
2022/09/15 05:05:09;;;;;;;;;8.75;8.25;;;;;-144.76;100.00;60493.00;5048245;28;47711;-81
2022/09/15 05:07:35;;;;;;;;;12.25;11.00;;;;;-144.76;100.00;60493.00;5053277;28;45516;-81
2022/09/15 05:10:00;;;;;;;;;13.75;12.75;;;;;-144.76;100.00;60493.00;5053434;28;45108;-81
2022/09/15 05:12:26;;;;;;;;;12.25;11.50;;;;;-144.76;100.00;60493.00;5052847;28;45160;-81
2022/09/15 05:14:52;;;;;;;;;13.75;12.75;;;;;-144.76;100.00;60493.00;5053341;28;45149;-81
2022/09/15 05:17:17;;;;;;;;;9.25;9.25;;;;;-144.76;100.00;60493.00;5053418;28;44882;-81
2022/09/15 05:19:42;;;;;;;;;14.00;13.00;;;;;-144.76;100.00;60493.00;5053482;28;46766;-81
2022/09/15 05:22:07;;;;;;;;;11.67;11.67;;;;;-144.76;100.00;60493.00;5052936;28;52126;-81
2022/09/15 05:24:33;;;;;;;;;12.00;11.75;;;;;-144.76;100.00;60493.00;5053790;28;51279;-81
2022/09/15 05:26:58;;;;;;;;;14.50;14.00;;;;;-144.76;100.00;60493.00;5053497;28;45172;-81
2022/09/15 05:29:24;;;;;;;;;14.00;13.25;;;;;-144.76;100.00;60493.00;5052393;28;45377;-81
2022/09/15 05:31:49;;;;;;;;;15.50;15.00;;;;;-144.76;100.00;60493.00;5053118;28;45086;-81
2022/09/15 05:34:14;;;;;;;;;17.75;15.00;;;;;-144.76;100.00;60493.00;5053353;28;45442;-82
2022/09/15 05:36:40;;;;;;;;;14.75;13.25;;;;;-144.76;100.00;60493.00;5053054;28;45038;-81
2022/09/15 05:39:05;;;;;;;;;12.75;12.50;;;;;-144.76;100.00;60493.00;5053431;28;45155;-81
2022/09/15 05:41:31;;;;;;;;;14.50;13.00;;;;;-144.76;100.00;60493.00;5052622;28;45117;-81
2022/09/15 05:43:57;;;;;;;;;14.75;13.50;;;;;-144.76;100.00;60493.00;5052857;28;45067;-81
2022/09/15 05:46:27;;;;;;;;;14.50;13.50;;;;;-144.76;100.00;60493.00;5052908;28;45169;-82
2022/09/15 05:48:55;;;;;;;;;15.50;14.75;;;;;-144.76;100.00;60493.00;5052889;28;45013;-82
2022/09/15 05:51:21;;;;;;;;;18.00;16.50;;;;;-144.76;100.00;60493.00;5052868;28;45055;-81
2022/09/15 05:53:47;;;;;;;;;15.00;14.25;;;;;-144.76;100.00;60493.00;5051563;28;46140;-81
2022/09/15 05:56:15;;;;;;;;;16.50;15.25;;;;;-144.76;100.00;60493.00;5052825;28;45059;-81
2022/09/15 05:58:42;;;;;;;;;17.25;16.00;;;;;-144.76;100.00;60493.00;5052295;28;44998;-83
2022/09/15 06:01:16;;;;;;;;;16.75;15.00;;;;;-144.76;100.00;60493.00;5053098;28;44910;-81
2022/09/15 06:03:42;;;;;;;;;13.75;13.75;;;;;-144.76;100.00;60493.00;5052643;28;45626;-82
2022/09/15 06:06:08;;;;;;;;;17.50;15.50;;;;;-144.76;100.00;60493.00;5052714;28;45652;-81
2022/09/15 06:08:42;;;;;;;;;16.50;16.00;;;;;-144.76;100.00;60493.00;5052489;28;45048;-81
2022/09/15 06:11:14;;;;;;;;;16.25;15.75;;;;;-144.76;100.00;60493.00;5052890;28;45175;-81
2022/09/15 06:13:40;;;;;;;;;18.50;18.00;;;;;-144.76;100.00;60493.00;5051917;28;45668;-81
2022/09/15 06:16:08;;;;;;;;;17.50;16.00;;;;;-144.76;100.00;60493.00;5052865;28;44878;-81
2022/09/15 06:18:36;;;;;;;;;19.50;17.50;;;;;-144.76;100.00;60493.00;5052412;28;44912;-81
2022/09/15 06:21:05;;;;;;;;;15.50;15.50;;;;;-144.76;100.00;60493.00;5052365;28;44902;-81
2022/09/15 06:23:31;;;;;;;;;15.75;15.00;;;;;-144.76;100.00;60493.00;5052407;28;45973;-82
2022/09/15 06:26:03;;;;;;;;;21.00;19.75;;;;;-144.76;100.00;60493.00;5052235;28;45087;-81
2022/09/15 06:28:28;;;;;;;;;16.50;16.25;;;;;-144.76;100.00;60493.00;5051693;28;45110;-81
2022/09/15 06:30:54;;;;;;;;;16.00;16.00;;;;;-144.76;100.00;60493.00;5052407;28;45267;-81
2022/09/15 06:33:19;;;;;;;;;17.00;15.67;;;;;-144.76;100.00;60493.00;5051754;28;58831;-81
2022/09/15 06:35:44;;;;;;;;;21.50;20.00;;;;;-144.76;100.00;60493.00;5051868;28;45013;-81
2022/09/15 06:38:10;;;;;;;;;18.33;17.67;;;;;-144.76;100.00;60493.00;5052165;28;62006;-81
2022/09/15 06:40:36;;;;;;;;;19.00;18.25;;;;;-144.76;100.00;60493.00;5051976;28;45090;-81
2022/09/15 06:43:01;;;;;;;;;21.75;18.50;;;;;-144.76;100.00;60493.00;5051229;28;45137;-81
2022/09/15 06:45:28;;;;;;;;;19.50;15.75;;;;;-144.76;100.00;60493.00;5052486;28;45200;-81
2022/09/15 06:47:53;;;;;;;;;18.75;17.25;;;;;-144.76;100.00;60493.00;5052274;28;45075;-81
2022/09/15 06:50:18;;;;;;;;;22.75;20.75;;;;;-144.76;100.00;60493.00;5051930;28;44917;-81
2022/09/15 06:52:44;;;;;;;;;16.25;16.25;;;;;-144.76;100.00;60493.00;5050490;28;46682;-81
2022/09/15 06:55:09;;;;;;;;;15.00;15.00;;;;;-144.76;100.00;60493.00;5050623;28;44940;-81
2022/09/15 06:57:34;;;;;;;;;22.25;21.75;;;;;-144.76;100.00;60493.00;5051247;28;45399;-81
2022/09/15 07:00:00;;;;;;;;;16.25;16.25;;;;;-144.76;100.00;60493.00;5051990;28;45200;-81
2022/09/15 07:02:26;;;;;;;;;23.50;22.50;;;;;-144.76;100.00;60493.00;5051555;28;45112;-81
2022/09/15 07:04:51;;;;;;;;;24.33;21.00;;;;;-144.76;100.00;60493.00;5051217;28;60543;-81
2022/09/15 07:07:17;;;;;;;;;21.33;18.67;;;;;-144.76;100.00;60493.00;5050735;28;58581;-82
2022/09/15 07:09:42;;;;;;;;;18.50;18.50;;;;;-144.76;100.00;60493.00;5051721;28;45080;-81
2022/09/15 07:12:07;;;;;;;;;22.67;21.33;;;;;-144.76;100.00;60493.00;5050408;28;53906;-81
2022/09/15 07:14:33;;;;;;;;;22.25;21.75;;;;;-144.76;100.00;60493.00;5051868;28;45138;-81
2022/09/15 07:16:58;;;;;;;;;27.25;24.50;;;;;-144.76;100.00;60493.00;5051704;28;53236;-82
2022/09/15 07:19:23;;;;;;;;;24.00;22.00;;;;;-144.76;100.00;60493.00;5051045;28;48119;-81
2022/09/15 07:21:49;;;;;;;;;28.25;24.25;;;;;-144.76;100.00;60493.00;5051542;28;45747;-82
2022/09/15 07:24:14;;;;;;;;;21.25;19.50;;;;;-144.76;100.00;60493.00;5051325;28;45035;-81
2022/09/15 07:26:40;;;;;;;;;27.00;22.75;;;;;-144.76;100.00;60493.00;5051515;28;44930;-81
2022/09/15 07:29:06;;;;;;;;;23.25;21.50;;;;;-144.76;100.00;60493.00;5050380;28;44862;-81
2022/09/15 07:31:33;;;;;;;;;23.00;21.75;;;;;-144.76;100.00;60493.00;5051184;28;45285;-81
2022/09/15 07:33:59;;;;;;;;;22.50;21.00;;;;;-144.76;100.00;60493.00;5050897;28;45576;-81
2022/09/15 07:36:25;;;;;;;;;23.50;22.50;;;;;-144.76;100.00;60493.00;5051057;28;45060;-81
2022/09/15 07:38:51;;;;;;;;;24.75;22.25;;;;;-144.76;100.00;60493.00;5051579;28;44972;-82
2022/09/15 07:41:22;;;;;;;;;24.25;21.75;;;;;-144.76;100.00;60493.00;5051119;28;45188;-81
2022/09/15 07:43:52;;;;;;;;;24.00;23.25;;;;;-144.76;100.00;60493.00;5050374;28;45424;-81
2022/09/15 07:46:19;;;;;;;;;22.25;19.50;;;;;-144.76;100.00;60493.00;5049649;28;45104;-82
2022/09/15 07:48:46;;;;;;;;;26.00;23.75;;;;;-144.76;100.00;60493.00;5050836;28;45502;-81
2022/09/15 07:51:13;;;;;;;;;24.00;20.75;;;;;-144.76;100.00;60493.00;5050586;28;45607;-81
2022/09/15 07:53:38;;;;;;;;;21.00;19.25;;;;;-144.76;100.00;60493.00;5051276;28;45315;-82
2022/09/15 07:56:04;;;;;;;;;23.25;22.50;;;;;-144.76;100.00;60493.00;5049361;28;44955;-81
2022/09/15 07:58:31;;;;;;;;;21.25;19.75;;;;;-144.76;100.00;60493.00;5050700;28;45325;-80
2022/09/15 08:01:01;;;;;;;;;25.25;23.25;;;;;-144.76;100.00;60493.00;5050686;28;45400;-81
2022/09/15 08:03:27;;;;;;;;;25.50;23.00;;;;;-144.76;100.00;60493.00;5050766;28;45187;-81
2022/09/15 08:05:59;;;;;;;;;24.33;22.00;;;;;-144.76;100.00;60493.00;5050445;28;47860;-81
2022/09/15 08:08:26;;;;;;;;;20.00;19.25;;;;;-144.76;100.00;60493.00;5050385;28;45177;-81
2022/09/15 08:10:53;;;;;;;;;24.25;22.50;;;;;-144.76;100.00;60493.00;5051045;28;45201;-81
2022/09/15 08:13:18;;;;;;;;;23.50;20.50;;;;;-144.76;100.00;60493.00;5050282;28;45583;-81
2022/09/15 08:15:44;;;;;;;;;23.25;21.75;;;;;-144.76;100.00;60493.00;5050808;28;45122;-81
2022/09/15 08:18:10;;;;;;;;;25.75;22.25;;;;;-144.76;100.00;60493.00;5050567;28;45216;-81
2022/09/15 08:20:40;;;;;;;;;23.50;20.75;;;;;-144.76;100.00;60493.00;5050518;28;46001;-81
2022/09/15 08:23:05;;;;;;;;;20.25;19.25;;;;;-144.76;100.00;60493.00;5051051;28;45389;-81
2022/09/15 08:25:31;;;;;;;;;20.75;19.50;;;;;-144.76;100.00;60493.00;5050693;28;45168;-81
2022/09/15 08:27:58;;;;;;;;;18.67;17.33;;;;;-144.76;100.00;60493.00;5048904;28;57644;-82
2022/09/15 08:30:24;;;;;;;;;18.75;16.50;;;;;-144.76;100.00;60493.00;5050212;28;46131;-82
2022/09/15 08:32:49;;;;;;;;;17.25;16.50;;;;;-144.76;100.00;60493.00;5049201;28;45118;-81
2022/09/15 08:35:14;;;;;;;;;19.00;17.25;;;;;-144.76;100.00;60493.00;5050529;28;45093;-81
2022/09/15 08:37:40;;;;;;;;;22.50;19.75;;;;;-144.76;100.00;60493.00;5050543;28;45162;-81
2022/09/15 08:40:07;;;;;;;;;19.75;19.50;;;;;-144.76;100.00;60493.00;5050091;28;45016;-80
2022/09/15 08:42:33;;;;;;;;;19.75;17.25;;;;;-144.76;100.00;60493.00;5052894;28;45186;-81
2022/09/15 08:45:06;;;;;;;;;18.25;16.00;;;;;-144.76;100.00;60493.00;5054399;28;45131;-80
2022/09/15 08:47:41;;;;;;;;;12.00;10.25;;;;;-144.76;100.00;60493.00;5053560;28;45015;-82
2022/09/15 08:50:27;;;;;;;;;16.50;14.75;;;;;-144.76;100.00;60493.00;5054144;28;45057;-81
2022/09/15 08:53:11;;;;;;;;;17.75;16.75;;;;;-144.76;100.00;60493.00;5053401;28;45494;-82
2022/09/15 08:55:43;;;;;;;;;18.50;16.25;;;;;-144.76;100.00;60493.00;5054188;28;45310;-81
2022/09/15 08:58:17;;;;;;;;;14.50;14.50;;;;;-144.76;100.00;60493.00;5053009;28;45278;-81
2022/09/15 09:00:45;;;;;;;;;16.50;14.25;;;;;-144.76;100.00;60493.00;5053758;28;45123;-81
2022/09/15 09:03:38;;;;;;;;;16.50;16.25;;;;;-144.76;100.00;60493.00;5053721;28;45287;-81
2022/09/15 09:06:22;;;;;;;;;15.25;15.00;;;;;-144.76;100.00;60493.00;5053895;28;44924;-82
2022/09/15 09:09:05;;;;;;;;;15.75;15.25;;;;;-144.76;100.00;60493.00;5053521;28;45240;-81
2022/09/15 09:11:54;;;;;;;;;13.75;13.00;;;;;-144.76;100.00;60493.00;5051466;28;46309;-81
2022/09/15 09:14:45;;;;;;;;;13.50;12.25;;;;;-144.76;100.00;60493.00;5053513;28;45035;-81
2022/09/15 09:17:35;;;;;;;;;16.75;13.50;;;;;-144.76;100.00;60493.00;5068576;28;45126;-82
2022/09/15 09:20:30;;;;;;;;;14.00;14.00;;;;;-144.76;100.00;60493.00;5053779;28;45100;-81
2022/09/15 09:22:59;;;;;;;;;12.75;12.75;;;;;-144.76;100.00;60493.00;5051676;28;46839;-81
2022/09/15 09:25:25;;;;;;;;;16.50;15.50;;;;;-144.76;100.00;60493.00;5053237;28;45436;-81
2022/09/15 09:27:52;;;;;;;;;15.25;14.50;;;;;-144.76;100.00;60493.00;5052664;28;45075;-81
2022/09/15 09:30:22;;;;;;;;;11.50;10.75;;;;;-144.76;100.00;60493.00;5053317;28;45416;-81
2022/09/15 09:33:07;;;;;;;;;10.75;9.50;;;;;-144.76;100.00;60493.00;5052873;28;46246;-82
2022/09/15 09:35:45;;;;;;;;;8.25;7.50;;;;;-144.76;100.00;60493.00;5052990;28;45114;-81
2022/09/15 09:38:17;;;;;;;;;7.00;5.75;;;;;-144.76;100.00;60493.00;5053380;28;44997;-82
2022/09/15 09:40:43;;;;;;;;;10.75;10.00;;;;;-144.76;100.00;60493.00;5053135;28;44961;-81
2022/09/15 09:43:09;;;;;;;;;10.00;10.00;;;;;-144.76;100.00;60493.00;5052136;28;45564;-81
2022/09/15 09:45:35;;;;;;;;;9.50;8.00;;;;;-144.76;100.00;60493.00;5053620;28;45239;-81
2022/09/15 09:48:22;;;;;;;;;8.00;8.00;;;;;-144.76;100.00;60493.00;5053116;28;45095;-80
2022/09/15 09:50:49;;;;;;;;;7.25;7.25;;;;;-144.76;100.00;60493.00;5052867;28;45028;-81
2022/09/15 09:53:26;;;;;;;;;8.00;7.75;;;;;-144.76;100.00;60493.00;5052168;28;45184;-81
2022/09/15 09:56:37;;;;;;;;;8.25;6.00;;;;;-144.76;100.00;60493.00;5053493;28;45630;-81
2022/09/15 09:59:03;;;;;;;;;6.25;6.00;;;;;-144.76;100.00;60493.00;5051401;28;45265;-81
2022/09/15 10:01:29;;;;;;;;;7.75;6.25;;;;;-144.76;100.00;60493.00;5053076;28;44952;-81
2022/09/15 10:04:12;;;;;;;;;6.25;5.25;;;;;-144.76;100.00;60493.00;5052544;28;45915;-81
2022/09/15 10:06:39;;;;;;;;;7.50;7.00;;;;;-144.76;100.00;60493.00;5052795;28;45331;-81
2022/09/15 10:09:13;;;;;;;;;5.00;4.75;;;;;-144.76;100.00;60493.00;5052740;28;44976;-80
2022/09/15 10:11:45;;;;;;;;;7.75;6.75;;;;;-144.76;100.00;60493.00;5052603;28;45178;-81
2022/09/15 10:14:28;;;;;;;;;5.50;5.50;;;;;-144.76;100.00;60493.00;5052563;28;45685;-81
2022/09/15 10:17:01;;;;;;;;;4.00;4.00;;;;;-144.76;100.00;60493.00;5051051;28;44993;-81
2022/09/15 10:19:30;;;;;;;;;6.75;5.00;;;;;-144.76;100.00;60493.00;5052606;28;45028;-81
2022/09/15 10:21:58;;;;;;;;;7.00;7.00;;;;;-144.76;100.00;60493.00;5052641;28;45624;-81
2022/09/15 10:24:32;;;;;;;;;6.75;5.75;;;;;-144.76;100.00;60493.00;5052871;28;45549;-81
2022/09/15 10:27:15;;;;;;;;;5.50;5.50;;;;;-144.76;100.00;60493.00;5051502;28;45018;-81
2022/09/15 10:29:40;;;;;;;;;6.00;6.00;;;;;-144.76;100.00;60493.00;5052407;28;45100;-82
2022/09/15 10:32:35;;;;;;;;;7.00;7.00;;;;;-144.76;100.00;60493.00;5052288;28;44906;-81
2022/09/15 10:35:14;;;;;;;;;8.50;8.50;;;;;-144.76;100.00;60493.00;5038390;28;45139;-80
2022/09/15 10:37:57;;;;;;;;;10.00;9.25;;;;;-144.76;100.00;60493.00;5033983;28;45470;-81
2022/09/15 10:40:47;;;;;;;;;8.25;7.75;;;;;-144.76;100.00;60493.00;5034036;28;45091;-81
2022/09/15 10:43:42;;;;;;;;;7.00;6.25;;;;;-144.76;100.00;60493.00;5051616;28;45164;-81
2022/09/15 10:46:27;;;;;;;;;7.00;6.25;;;;;-144.76;100.00;60493.00;5034001;28;46326;-81
2022/09/15 10:49:19;;;;;;;;;8.00;8.00;;;;;-144.76;100.00;60493.00;5052571;28;45193;-81
2022/09/15 10:51:56;;;;;;;;;6.00;6.00;;;;;-144.76;100.00;60493.00;5051851;28;45256;-81
2022/09/15 10:54:30;;;;;;;;;5.00;5.00;;;;;-144.76;100.00;60493.00;5052020;28;45038;-81
2022/09/15 10:57:21;;;;;;;;;8.75;7.00;;;;;-144.76;100.00;60493.00;5051152;28;46216;-81
2022/09/15 11:00:05;;;;;;;;;6.75;6.00;;;;;-144.76;100.00;60493.00;4998761;28;45088;-82
2022/09/15 11:03:05;;;;;;;;;5.00;4.50;;;;;-144.76;100.00;60493.00;5051342;28;45024;-81
2022/09/15 11:05:47;;;;;;;;;5.00;4.50;;;;;-144.76;100.00;60493.00;5051968;28;44974;-81
2022/09/15 11:08:38;;;;;;;;;4.75;4.25;;;;;-144.76;100.00;60493.00;5051072;28;45283;-81
2022/09/15 11:11:29;;;;;;;;;4.75;4.00;;;;;-144.76;100.00;60493.00;5051681;28;45113;-81
2022/09/15 11:14:17;;;;;;;;;5.00;4.50;;;;;-144.76;100.00;60493.00;5051530;28;45085;-81
2022/09/15 11:16:42;;;;;;;;;5.00;5.00;;;;;-144.76;100.00;60493.00;5043169;28;44957;-81
2022/09/15 11:19:32;;;;;;;;;3.00;2.25;;;;;-144.76;100.00;60493.00;5051737;28;45270;-81
2022/09/15 11:22:03;;;;;;;;;4.00;4.00;;;;;-144.76;100.00;60493.00;5051821;28;45368;-81